Time;durP1;ratioP1;P1;durP2;ratioP2;P2;SDS_P1;SDS_P2;PMS_P1;PMS_P2;Temp;Humidity;BMP_temperature;BMP_pressure;BME280_temperature;BME280_humidity;BME280_pressure;Samples;Min_cycle;Max_cycle;Signal;HPM_P1;HPM_P2
2022/08/16 00:00:33;;;;;;;9.52;2.70;;;;;;;14.12;100.00;100434.53;4941254;28;20151;-78
2022/08/16 00:02:59;;;;;;;14.38;3.40;;;;;;;14.05;100.00;100437.19;4977400;28;20026;-78
2022/08/16 00:05:27;;;;;;;8.35;2.78;;;;;;;13.89;100.00;100418.69;4963270;28;20144;-80
2022/08/16 00:07:54;;;;;;;10.68;3.25;;;;;;;13.96;100.00;100433.03;4956881;28;20037;-79
2022/08/16 00:10:24;;;;;;;5.95;2.20;;;;;;;13.96;100.00;100433.88;4944345;28;20133;-80
2022/08/16 00:12:50;;;;;;;9.43;3.10;;;;;;;13.98;100.00;100439.91;4975698;28;20121;-77
2022/08/16 00:15:21;;;;;;;11.30;3.08;;;;;;;13.96;100.00;100439.28;4945478;28;20034;-78
2022/08/16 00:17:46;;;;;;;6.10;2.53;;;;;;;13.93;100.00;100430.75;4963269;28;20034;-76
2022/08/16 00:20:12;;;;;;;10.10;2.70;;;;;;;13.95;100.00;100444.91;4964666;28;20030;-77
2022/08/16 00:22:40;;;;;;;9.55;2.65;;;;;;;13.79;100.00;100438.03;4976094;28;20048;-79
2022/08/16 00:25:10;;;;;;;6.40;2.10;;;;;;;13.94;100.00;100451.34;4968518;28;20085;-76
2022/08/16 00:27:36;;;;;;;8.07;2.88;;;;;;;13.95;100.00;100456.53;4976787;28;20130;-78
2022/08/16 00:30:04;;;;;;;7.93;2.25;;;;;;;13.86;100.00;100430.72;4963456;28;20622;-77
2022/08/16 00:32:32;;;;;;;11.32;2.85;;;;;;;14.03;100.00;100450.94;4950589;28;20555;-78
2022/08/16 00:35:03;;;;;;;10.60;2.65;;;;;;;14.04;100.00;100447.19;4964354;28;20027;-77
2022/08/16 00:37:29;;;;;;;8.65;2.55;;;;;;;14.03;100.00;100450.13;4950986;28;20374;-77
2022/08/16 00:39:55;;;;;;;9.65;3.08;;;;;;;14.04;100.00;100463.41;4980869;28;20046;-77
2022/08/16 00:42:21;;;;;;;7.28;2.72;;;;;;;14.00;100.00;100467.56;4983111;28;20031;-78
2022/08/16 00:44:57;;;;;;;6.40;2.47;;;;;;;13.93;100.00;100447.81;4952114;28;20065;-76
2022/08/16 00:47:23;;;;;;;5.68;2.40;;;;;;;14.01;100.00;100465.69;4949552;28;20041;-77
2022/08/16 00:49:49;;;;;;;8.98;2.42;;;;;;;14.19;100.00;100465.94;4950000;28;20464;-78
2022/08/16 00:52:17;;;;;;;7.30;2.38;;;;;;;14.25;99.68;100461.56;4948659;28;20034;-78
2022/08/16 00:54:43;;;;;;;6.43;3.05;;;;;;;14.14;100.00;100459.50;4976617;28;20026;-76
2022/08/16 00:57:09;;;;;;;5.25;1.73;;;;;;;14.15;100.00;100463.84;4958700;28;20518;-78
2022/08/16 00:59:37;;;;;;;12.00;2.63;;;;;;;14.07;100.00;100468.41;4968205;28;20048;-76
2022/08/16 01:02:07;;;;;;;9.75;2.72;;;;;;;14.09;100.00;100462.81;4944669;28;20185;-77
2022/08/16 01:04:33;;;;;;;8.50;3.03;;;;;;;13.99;100.00;100462.38;4976746;28;20052;-78
2022/08/16 01:07:04;;;;;;;8.27;2.50;;;;;;;14.03;100.00;100472.56;4962461;28;20034;-78
2022/08/16 01:09:32;;;;;;;11.75;2.70;;;;;;;14.01;100.00;100465.69;4978205;28;20030;-77
2022/08/16 01:11:59;;;;;;;6.97;2.53;;;;;;;13.94;100.00;100468.38;4963263;28;20546;-78
2022/08/16 01:14:28;;;;;;;8.75;2.80;;;;;;;13.67;100.00;100435.06;4969669;28;20031;-76
2022/08/16 01:16:57;;;;;;;5.90;2.58;;;;;;;13.91;100.00;100467.97;4948626;28;20045;-79
2022/08/16 01:19:32;;;;;;;6.78;3.30;;;;;;;13.93;100.00;100471.31;4952684;28;20035;-77
2022/08/16 01:22:01;;;;;;;8.93;2.90;;;;;;;13.90;100.00;100469.00;4954139;28;20042;-77
2022/08/16 01:24:45;;;;;;;6.97;3.42;;;;;;;13.79;100.00;100457.75;4963213;28;20034;-77
2022/08/16 01:27:26;;;;;;;10.05;2.85;;;;;;;13.88;100.00;100471.91;4975554;28;20038;-76
2022/08/16 01:29:58;;;;;;;7.47;2.40;;;;;;;13.77;100.00;100457.13;4947379;28;20038;-77
2022/08/16 01:32:24;;;;;;;9.35;3.28;;;;;;;13.92;100.00;100477.72;4971673;28;20030;-78
2022/08/16 01:34:52;;;;;;;10.85;3.53;;;;;;;13.87;100.00;100480.25;4965356;28;20049;-77
2022/08/16 01:37:17;;;;;;;8.48;3.38;;;;;;;13.89;100.00;100478.13;4969494;28;20483;-77
2022/08/16 01:39:46;;;;;;;10.80;3.63;;;;;;;13.89;100.00;100476.25;4949372;28;20056;-77
2022/08/16 01:42:14;;;;;;;9.60;3.08;;;;;;;13.86;100.00;100479.38;4968087;28;20026;-76
2022/08/16 01:44:42;;;;;;;5.50;2.92;;;;;;;13.90;100.00;100480.66;4977968;28;20042;-78
2022/08/16 01:47:09;;;;;;;13.90;3.33;;;;;;;13.89;100.00;100470.03;4965800;28;20038;-77
2022/08/16 01:49:41;;;;;;;11.32;2.65;;;;;;;13.92;100.00;100480.44;4964521;28;20037;-77
2022/08/16 01:52:10;;;;;;;12.23;3.10;;;;;;;13.76;100.00;100458.19;4965042;28;20045;-77
2022/08/16 01:54:36;;;;;;;10.38;2.45;;;;;;;13.83;100.00;100477.91;4979846;28;20484;-78
2022/08/16 01:57:02;;;;;;;9.82;2.92;;;;;;;13.76;100.00;100463.56;4963342;28;20037;-77
2022/08/16 01:59:32;;;;;;;5.68;2.53;;;;;;;13.83;100.00;100483.31;4966121;28;20100;-77
2022/08/16 02:01:59;;;;;;;4.93;2.60;;;;;;;13.88;100.00;100480.03;4983039;28;20041;-76
2022/08/16 02:04:32;;;;;;;6.18;3.10;;;;;;;13.84;100.00;100482.31;4953737;28;20026;-77
2022/08/16 02:06:58;;;;;;;7.38;2.40;;;;;;;13.80;100.00;100485.59;4975206;28;20105;-77
2022/08/16 02:09:24;;;;;;;8.02;2.53;;;;;;;13.76;100.00;100477.09;4961105;28;20065;-78
2022/08/16 02:11:57;;;;;;;7.68;2.55;;;;;;;13.83;100.00;100487.91;4947663;28;20034;-78
2022/08/16 02:14:26;;;;;;;9.02;2.60;;;;;;;13.83;99.62;100496.84;4962270;28;20081;-79
2022/08/16 02:16:52;;;;;;;8.05;3.58;;;;;;;13.81;98.69;100488.13;4974063;28;20129;-79
2022/08/16 02:19:20;;;;;;;6.03;2.00;;;;;;;13.81;97.86;100495.38;4939667;28;20472;-78
2022/08/16 02:21:50;;;;;;;9.88;2.85;;;;;;;13.80;97.48;100501.81;4961787;28;20034;-78
2022/08/16 02:24:15;;;;;;;8.05;3.78;;;;;;;13.91;96.10;100506.63;4968459;28;20068;-79
2022/08/16 02:26:41;;;;;;;9.43;2.22;;;;;;;13.84;95.68;100500.41;4967546;28;20073;-78
2022/08/16 02:29:09;;;;;;;6.13;2.47;;;;;;;13.75;95.98;100507.84;4980503;28;20069;-77
2022/08/16 02:31:35;;;;;;;9.60;2.47;;;;;;;13.73;95.78;100511.78;4960945;28;20042;-77
2022/08/16 02:34:01;;;;;;;5.25;2.22;;;;;;;13.66;96.25;100513.63;4966610;28;20034;-77
2022/08/16 02:36:27;;;;;;;9.30;2.83;;;;;;;13.56;96.72;100505.91;4947275;28;20049;-78
2022/08/16 02:38:53;;;;;;;6.68;2.55;;;;;;;13.49;96.24;100507.72;4964084;28;20082;-77
2022/08/16 02:41:19;;;;;;;8.63;4.05;;;;;;;13.56;96.59;100522.09;4981322;28;20027;-79
2022/08/16 02:43:45;;;;;;;6.57;2.40;;;;;;;13.49;96.87;100513.97;4972291;28;20080;-78
2022/08/16 02:46:13;;;;;;;7.35;2.70;;;;;;;13.53;97.53;100525.22;4976602;28;22489;-78
2022/08/16 02:48:39;;;;;;;6.55;2.05;;;;;;;13.49;97.92;100526.63;4957420;28;20038;-78
2022/08/16 02:51:06;;;;;;;7.60;2.75;;;;;;;13.46;98.11;100524.34;4983290;28;20109;-77
2022/08/16 02:53:34;;;;;;;5.50;2.25;;;;;;;13.46;98.58;100527.88;4943861;28;20049;-77
2022/08/16 02:55:59;;;;;;;5.13;2.20;;;;;;;13.53;96.00;100533.31;4973694;28;20038;-78
2022/08/16 02:58:27;;;;;;;9.23;2.17;;;;;;;13.53;95.67;100539.56;4976586;28;20030;-77
2022/08/16 03:00:54;;;;;;;4.93;2.00;;;;;;;13.48;94.31;100523.09;4967538;28;20542;-78
2022/08/16 03:03:21;;;;;;;8.73;2.20;;;;;;;13.50;94.39;100526.44;4945312;28;20066;-78
2022/08/16 03:05:50;;;;;;;4.00;1.42;;;;;;;13.57;93.86;100531.88;4959258;28;20042;-78
2022/08/16 03:08:17;;;;;;;6.53;2.25;;;;;;;13.51;93.74;100522.69;4962230;28;20116;-78
2022/08/16 03:10:43;;;;;;;8.10;2.20;;;;;;;13.47;94.26;100528.69;4958948;28;20117;-77
2022/08/16 03:13:09;;;;;;;9.57;2.85;;;;;;;13.48;94.42;100539.31;4979987;28;20178;-77
2022/08/16 03:15:36;;;;;;;7.82;2.20;;;;;;;13.30;94.36;100512.84;4968380;28;20113;-77
2022/08/16 03:18:04;;;;;;;4.32;1.75;;;;;;;13.44;94.97;100537.22;4978770;28;20037;-78
2022/08/16 03:20:32;;;;;;;5.13;2.25;;;;;;;13.44;94.61;100534.50;4977232;28;20034;-77
2022/08/16 03:23:00;;;;;;;7.25;2.38;;;;;;;13.35;95.12;100531.16;4981727;28;20419;-78
2022/08/16 03:25:26;;;;;;;5.78;1.70;;;;;;;13.42;95.31;100529.31;4965493;28;20443;-77
2022/08/16 03:27:51;;;;;;;3.95;2.17;;;;;;;13.45;95.65;100530.78;4962026;28;20038;-79
2022/08/16 03:30:21;;;;;;;12.45;2.35;;;;;;;13.50;96.52;100539.97;4980316;28;20617;-77
2022/08/16 03:32:52;;;;;;;7.38;2.67;;;;;;;13.46;96.92;100537.84;4949222;28;20038;-77
2022/08/16 03:35:21;;;;;;;8.52;2.38;;;;;;;13.40;97.44;100531.38;4947337;28;20054;-77
2022/08/16 03:37:50;;;;;;;7.45;3.67;;;;;;;13.35;97.88;100531.16;4981766;28;20045;-78
2022/08/16 03:40:16;;;;;;;11.32;2.50;;;;;;;13.37;98.30;100537.19;4951359;28;20044;-78
2022/08/16 03:42:48;;;;;;;7.15;2.40;;;;;;;13.34;98.90;100537.59;4961728;28;20038;-78
2022/08/16 03:45:14;;;;;;;8.70;2.50;;;;;;;13.33;99.65;100542.13;4983197;28;20042;-79
2022/08/16 03:47:40;;;;;;;11.27;4.60;;;;;;;13.19;99.77;100527.69;4963132;28;20047;-79
2022/08/16 03:50:09;;;;;;;8.07;2.50;;;;;;;13.26;99.98;100541.28;4968802;28;20061;-77
2022/08/16 03:52:35;;;;;;;3.42;2.10;;;;;;;13.28;100.00;100544.59;4979607;28;20053;-78
2022/08/16 03:55:02;;;;;;;6.40;2.03;;;;;;;13.29;100.00;100551.69;4970419;28;20026;-79
2022/08/16 03:57:31;;;;;;;15.35;2.65;;;;;;;13.27;100.00;100550.22;4972669;28;20088;-78
2022/08/16 03:59:59;;;;;;;6.18;1.80;;;;;;;13.18;100.00;100553.03;4962303;28;20057;-80
2022/08/16 04:02:26;;;;;;;7.80;2.60;;;;;;;13.12;100.00;100543.00;4943662;28;20038;-78
2022/08/16 04:04:52;;;;;;;8.68;2.45;;;;;;;13.07;100.00;100556.28;4983719;28;20042;-78
2022/08/16 04:07:19;;;;;;;10.23;3.10;;;;;;;12.97;100.00;100562.03;4949483;28;20047;-78
2022/08/16 04:09:44;;;;;;;2.83;1.40;;;;;;;12.95;99.30;100557.84;4989084;28;20655;-77
2022/08/16 04:12:12;;;;;;;6.60;2.58;;;;;;;12.73;99.15;100549.81;4953721;28;20049;-78
2022/08/16 04:14:37;;;;;;;4.43;1.35;;;;;;;12.65;100.00;100560.75;4971855;28;20034;-77
2022/08/16 04:17:06;;;;;;;3.47;1.65;;;;;;;12.53;100.00;100563.09;4986224;28;20042;-76
2022/08/16 04:19:34;;;;;;;5.78;2.30;;;;;;;12.49;100.00;100569.94;4947442;28;20473;-77
2022/08/16 04:22:02;;;;;;;6.43;2.13;;;;;;;12.16;100.00;100556.09;4964892;28;20103;-78
2022/08/16 04:24:28;;;;;;;6.05;2.08;;;;;;;11.82;100.00;100536.00;4983954;28;20045;-77
2022/08/16 04:26:53;;;;;;;6.63;2.22;;;;;;;11.85;100.00;100572.50;4980788;28;20042;-78
2022/08/16 04:29:22;;;;;;;5.65;2.55;;;;;;;11.66;100.00;100571.22;4981566;28;20038;-77
2022/08/16 04:31:49;;;;;;;8.70;2.80;;;;;;;11.41;100.00;100571.53;4953616;28;20038;-78
2022/08/16 04:34:15;;;;;;;6.32;2.88;;;;;;;11.36;100.00;100567.72;4967340;28;20389;-78
2022/08/16 04:36:44;;;;;;;6.32;2.60;;;;;;;11.41;100.00;100584.16;4978047;28;20030;-76
2022/08/16 04:39:09;;;;;;;3.28;1.90;;;;;;;11.36;100.00;100587.41;4938099;28;20035;-77
2022/08/16 04:41:35;;;;;;;7.97;2.17;;;;;;;11.33;100.00;100585.09;4983951;28;20395;-77
2022/08/16 04:44:01;;;;;;;4.93;1.80;;;;;;;11.13;100.00;100586.63;4951553;28;20041;-77
2022/08/16 04:46:29;;;;;;;6.85;2.67;;;;;;;10.78;100.00;100551.34;4961277;28;20124;-77
2022/08/16 04:48:58;;;;;;;5.15;2.05;;;;;;;11.00;100.00;100581.88;4978068;28;20089;-77
2022/08/16 04:51:24;;;;;;;4.75;2.13;;;;;;;10.93;100.00;100592.56;4963808;28;20101;-78
2022/08/16 04:53:49;;;;;;;3.60;1.98;;;;;;;10.43;100.00;100542.06;4978893;28;20038;-77
2022/08/16 04:56:17;;;;;;;7.47;2.38;;;;;;;10.73;100.00;100594.06;4977136;28;20022;-76
2022/08/16 04:58:45;;;;;;;4.53;1.92;;;;;;;10.70;100.00;100605.19;4947313;28;20100;-79
2022/08/16 05:01:11;;;;;;;3.88;2.17;;;;;;;10.64;100.00;100597.81;4971859;28;20049;-77
2022/08/16 05:03:37;;;;;;;10.82;3.40;;;;;;;10.63;100.00;100621.19;4976959;28;20038;-76
2022/08/16 05:06:03;;;;;;;7.18;2.38;;;;;;;10.63;100.00;100615.81;4969740;28;20034;-78
2022/08/16 05:08:29;;;;;;;7.97;2.05;;;;;;;10.58;100.00;100618.19;4961975;28;20073;-78
2022/08/16 05:10:56;;;;;;;6.93;2.60;;;;;;;10.57;100.00;100614.69;4976974;28;20026;-77
2022/08/16 05:13:22;;;;;;;5.28;2.15;;;;;;;10.68;100.00;100624.19;4978517;28;20034;-77
2022/08/16 05:15:48;;;;;;;5.45;1.80;;;;;;;10.73;100.00;100626.34;4975653;28;20108;-77
2022/08/16 05:18:16;;;;;;;6.93;2.45;;;;;;;10.79;100.00;100621.06;4964257;28;20088;-78
2022/08/16 05:20:42;;;;;;;7.00;2.10;;;;;;;10.96;100.00;100619.09;4962744;28;20250;-76
2022/08/16 05:23:08;;;;;;;8.15;2.40;;;;;;;11.06;100.00;100628.75;4976264;28;20497;-78
2022/08/16 05:25:33;;;;;;;12.15;1.98;;;;;;;11.20;100.00;100639.53;4959426;28;20038;-77
2022/08/16 05:28:02;;;;;;;10.48;2.70;;;;;;;11.39;100.00;100630.09;4954256;28;20527;-77
2022/08/16 05:30:30;;;;;;;13.20;2.63;;;;;;;11.48;100.00;100630.00;4958464;28;20396;-77
2022/08/16 05:32:56;;;;;;;9.38;2.38;;;;;;;11.51;100.00;100625.13;4965380;28;20042;-76
2022/08/16 05:35:25;;;;;;;7.65;2.15;;;;;;;11.65;100.00;100639.59;4976897;28;20097;-78
2022/08/16 05:37:51;;;;;;;6.72;2.25;;;;;;;11.74;100.00;100640.31;4949618;28;20128;-77
2022/08/16 05:40:17;;;;;;;9.02;2.67;;;;;;;11.81;100.00;100641.25;4966338;28;20048;-76
2022/08/16 05:42:43;;;;;;;7.22;2.60;;;;;;;11.90;100.00;100653.63;4969817;28;20519;-77
2022/08/16 05:45:15;;;;;;;10.05;2.90;;;;;;;11.97;100.00;100659.13;4949742;28;20042;-77
2022/08/16 05:47:43;;;;;;;10.82;2.15;;;;;;;11.88;100.00;100631.41;4977396;28;20038;-79
2022/08/16 05:50:09;;;;;;;8.63;2.40;;;;;;;11.98;100.00;100650.84;4957689;28;20042;-78
2022/08/16 05:52:35;;;;;;;9.77;2.78;;;;;;;12.01;100.00;100655.00;4961895;28;20524;-77
2022/08/16 05:55:01;;;;;;;3.08;1.70;;;;;;;12.05;100.00;100656.31;4975222;28;20034;-76
2022/08/16 05:57:30;;;;;;;10.38;2.38;;;;;;;12.04;100.00;100638.47;4961950;28;21749;-76
2022/08/16 05:59:56;;;;;;;6.10;2.55;;;;;;;12.14;100.00;100659.75;4971717;28;20037;-78
2022/08/16 06:02:26;;;;;;;8.85;2.58;;;;;;;12.15;100.00;100656.03;4974714;28;20039;-77
2022/08/16 06:04:52;;;;;;;9.90;2.88;;;;;;;12.26;100.00;100656.38;4980176;28;20046;-77
2022/08/16 06:07:20;;;;;;;8.20;2.53;;;;;;;12.40;100.00;100667.31;4976659;28;20061;-77
2022/08/16 06:09:46;;;;;;;6.78;2.50;;;;;;;12.43;100.00;100670.44;4955680;28;20073;-77
2022/08/16 06:12:12;;;;;;;5.78;2.53;;;;;;;12.58;100.00;100667.72;4979928;28;20100;-77
2022/08/16 06:14:37;;;;;;;10.38;2.70;;;;;;;12.59;100.00;100661.28;4981108;28;20030;-78
2022/08/16 06:17:03;;;;;;;9.63;2.47;;;;;;;12.71;100.00;100672.44;4968456;28;20544;-76
2022/08/16 06:19:29;;;;;;;5.95;2.53;;;;;;;12.68;100.00;100668.25;4942381;28;20507;-78
2022/08/16 06:21:54;;;;;;;6.45;2.92;;;;;;;12.56;100.00;100641.97;4966263;28;20033;-78
2022/08/16 06:24:22;;;;;;;7.90;2.63;;;;;;;12.64;100.00;100648.06;4974349;28;20041;-77
2022/08/16 06:26:47;;;;;;;13.68;3.47;;;;;;;12.78;100.00;100678.72;4983683;28;20484;-76
2022/08/16 06:29:13;;;;;;;4.90;1.95;;;;;;;12.84;98.87;100664.47;4962923;28;20077;-77
2022/08/16 06:31:38;;;;;;;8.77;2.72;;;;;;;13.05;96.95;100679.81;4981542;28;20061;-77
2022/08/16 06:34:05;;;;;;;9.38;3.03;;;;;;;13.16;94.61;100673.88;4965770;28;20034;-77
2022/08/16 06:36:30;;;;;;;5.47;1.90;;;;;;;13.31;93.17;100675.69;4977664;28;20527;-76
2022/08/16 06:38:58;;;;;;;5.45;2.05;;;;;;;13.38;92.14;100680.09;4976983;28;20030;-76
2022/08/16 06:41:24;;;;;;;5.05;2.35;;;;;;;13.41;91.54;100668.91;4964416;28;20066;-77
2022/08/16 06:43:52;;;;;;;4.45;2.38;;;;;;;13.37;91.25;100656.00;4967578;28;20920;-76
2022/08/16 06:46:26;;;;;;;3.45;1.65;;;;;;;13.60;90.22;100677.34;4980666;28;20066;-77
2022/08/16 06:48:51;;;;;;;5.75;1.80;;;;;;;13.69;89.87;100678.03;4961570;28;20086;-76
2022/08/16 06:51:17;;;;;;;8.45;3.42;;;;;;;13.75;88.48;100686.19;4982902;28;20039;-77
2022/08/16 06:53:43;;;;;;;6.35;2.70;;;;;;;13.85;87.67;100675.84;4960503;28;20069;-76
2022/08/16 06:56:09;;;;;;;7.22;2.20;;;;;;;14.16;85.62;100681.84;4961082;28;20061;-77
2022/08/16 06:58:35;;;;;;;13.63;2.13;;;;;;;14.10;86.06;100679.91;4966941;28;20121;-77
2022/08/16 07:01:01;;;;;;;4.78;2.17;;;;;;;14.17;86.31;100686.19;4970407;28;20117;-76
2022/08/16 07:03:29;;;;;;;7.85;2.10;;;;;;;14.25;85.93;100694.13;4969062;28;20457;-78
2022/08/16 07:06:00;;;;;;;6.70;2.33;;;;;;;14.24;86.29;100681.66;4989987;28;20034;-78
2022/08/16 07:08:26;;;;;;;7.10;2.47;;;;;;;14.35;85.76;100697.31;4992162;28;20125;-76
2022/08/16 07:10:52;;;;;;;4.30;2.08;;;;;;;14.41;86.33;100699.19;4954094;28;20042;-78
2022/08/16 07:13:21;;;;;;;4.00;1.77;;;;;;;14.59;85.23;100698.66;4976859;28;20030;-79
2022/08/16 07:15:48;;;;;;;5.93;2.15;;;;;;;14.56;84.23;100690.13;4962479;28;20029;-78
2022/08/16 07:18:18;;;;;;;5.20;2.17;;;;;;;14.57;85.14;100705.31;4967804;28;20495;-79
2022/08/16 07:20:46;;;;;;;5.95;2.00;;;;;;;14.48;85.02;100707.34;4962530;28;20039;-77
2022/08/16 07:23:12;;;;;;;6.25;1.73;;;;;;;14.30;84.86;100702.50;4968902;28;20038;-79
2022/08/16 07:25:37;;;;;;;10.93;2.28;;;;;;;14.46;83.44;100718.34;4965349;28;20617;-79
2022/08/16 07:28:09;;;;;;;6.10;2.17;;;;;;;14.28;83.32;100666.69;4978351;28;20542;-80
2022/08/16 07:30:35;;;;;;;7.97;2.05;;;;;;;14.77;82.82;100716.22;4983016;28;20128;-77
2022/08/16 07:33:01;;;;;;;6.82;2.40;;;;;;;15.14;79.73;100709.41;4977941;28;20126;-78
2022/08/16 07:35:27;;;;;;;4.35;2.00;;;;;;;15.66;77.26;100729.38;4973215;28;20450;-77
2022/08/16 07:37:52;;;;;;;5.18;1.40;;;;;;;15.94;75.75;100725.63;4963513;28;20050;-77
2022/08/16 07:40:18;;;;;;;5.22;1.73;;;;;;;16.45;73.87;100722.13;4968235;28;20473;-78
2022/08/16 07:42:48;;;;;;;8.10;2.00;;;;;;;16.89;71.76;100736.78;4970383;28;20129;-77
2022/08/16 07:45:14;;;;;;;5.93;2.22;;;;;;;16.83;70.07;100724.03;4981646;28;20480;-77
2022/08/16 07:47:41;;;;;;;3.50;1.65;;;;;;;16.70;71.42;100733.91;4976618;28;20031;-78
2022/08/16 07:50:08;;;;;;;4.43;1.80;;;;;;;16.81;69.83;100732.44;4975558;28;20412;-77
2022/08/16 07:52:34;;;;;;;2.97;1.63;;;;;;;17.11;68.71;100746.22;4985906;28;20039;-78
2022/08/16 07:55:05;;;;;;;2.50;1.55;;;;;;;17.16;68.85;100744.75;4956844;28;20499;-78
2022/08/16 07:57:30;;;;;;;5.47;2.22;;;;;;;17.06;68.63;100721.59;4952064;28;20042;-79
2022/08/16 07:59:56;;;;;;;2.28;1.90;;;;;;;17.09;66.61;100742.91;4954982;28;20407;-78
2022/08/16 08:02:22;;;;;;;6.05;2.22;;;;;;;16.99;67.37;100742.56;4985767;28;20045;-78
2022/08/16 08:04:48;;;;;;;3.65;1.73;;;;;;;16.90;68.86;100750.13;4986071;28;20417;-77
2022/08/16 08:07:14;;;;;;;5.85;1.85;;;;;;;17.02;67.46;100763.84;4984042;28;20492;-81
2022/08/16 08:09:42;;;;;;;8.23;2.10;;;;;;;16.87;68.72;100769.56;4952980;28;20038;-78
2022/08/16 08:12:08;;;;;;;6.85;2.17;;;;;;;16.49;69.63;100742.38;4980684;28;20030;-78
2022/08/16 08:14:35;;;;;;;8.25;1.70;;;;;;;16.08;73.19;100769.84;4986358;28;20072;-79
2022/08/16 08:17:06;;;;;;;4.90;1.92;;;;;;;15.78;74.20;100757.56;4964722;28;20033;-76
2022/08/16 08:19:35;;;;;;;7.50;2.58;;;;;;;15.89;73.25;100749.84;4988264;28;20116;-76
2022/08/16 08:22:02;;;;;;;4.20;2.00;;;;;;;16.09;73.94;100780.47;4973749;28;20034;-76
2022/08/16 08:24:31;;;;;;;5.80;2.00;;;;;;;16.43;73.10;100782.06;4970817;28;20038;-76
2022/08/16 08:26:59;;;;;;;8.02;2.33;;;;;;;16.92;72.30;100774.34;4951361;28;20096;-76
2022/08/16 08:29:26;;;;;;;5.15;2.10;;;;;;;17.48;67.89;100764.56;4965650;28;20034;-76
2022/08/16 08:31:52;;;;;;;3.05;1.73;;;;;;;17.76;66.03;100751.38;4989514;28;20030;-78
2022/08/16 08:34:20;;;;;;;11.38;2.42;;;;;;;18.21;63.95;100780.25;4980110;28;20057;-77
2022/08/16 08:36:49;;;;;;;5.18;2.35;;;;;;;18.31;62.18;100782.44;4998421;28;20030;-76
2022/08/16 08:39:17;;;;;;;4.72;2.05;;;;;;;18.68;61.65;100778.66;4951291;28;20039;-76
2022/08/16 08:41:46;;;;;;;4.47;1.30;;;;;;;18.69;60.87;100768.59;4985490;28;20030;-78
2022/08/16 08:44:12;;;;;;;5.63;2.17;;;;;;;19.24;58.16;100782.13;4968301;28;20124;-76
2022/08/16 08:46:39;;;;;;;4.35;1.40;;;;;;;19.59;57.72;100784.09;4981097;28;20047;-77
2022/08/16 08:49:07;;;;;;;6.88;2.28;;;;;;;20.11;56.77;100789.72;4986186;28;20081;-77
2022/08/16 08:51:34;;;;;;;5.70;2.13;;;;;;;21.41;50.85;100781.16;5004467;28;20177;-79
2022/08/16 08:53:59;;;;;;;5.65;1.80;;;;;;;21.80;50.25;100792.19;4975376;28;20046;-78
2022/08/16 08:56:25;;;;;;;6.30;2.08;;;;;;;21.00;51.52;100786.69;4982375;28;20050;-77
2022/08/16 08:58:51;;;;;;;6.72;2.40;;;;;;;22.22;48.44;100783.53;4982375;28;20532;-79
2022/08/16 09:01:25;;;;;;;6.10;2.20;;;;;;;24.45;43.04;100791.50;4983756;28;20034;-77
2022/08/16 09:03:54;;;;;;;5.13;2.15;;;;;;;22.15;45.97;100805.59;4980842;28;20105;-77
2022/08/16 09:06:20;;;;;;;4.50;1.70;;;;;;;20.50;49.69;100797.38;4967779;28;20038;-77
2022/08/16 09:08:59;;;;;;;;;;;;;;;;;;;;;
2022/08/16 09:11:38;;;;;;;2.72;1.55;;;;;;;19.45;53.80;100779.91;4958659;28;20354;-77
2022/08/16 09:14:07;;;;;;;14.95;1.95;;;;;;;20.81;49.03;100786.03;4971677;28;20053;-77
2022/08/16 09:16:32;;;;;;;5.85;2.10;;;;;;;23.90;43.97;100787.28;4971258;28;20476;-78
2022/08/16 09:18:59;;;;;;;2.92;2.10;;;;;;;24.02;40.89;100773.34;4986873;28;20045;-79
2022/08/16 09:21:25;;;;;;;4.55;1.58;;;;;;;24.07;40.49;100795.34;4945753;28;20411;-80
2022/08/16 09:23:51;;;;;;;5.97;2.20;;;;;;;22.62;42.89;100807.91;4974658;28;20022;-78
2022/08/16 09:26:17;;;;;;;7.50;1.52;;;;;;;21.69;43.58;100796.66;4972315;28;20030;-79
2022/08/16 09:28:47;;;;;;;3.63;1.35;;;;;;;21.30;45.98;100793.78;4973432;28;20093;-77
2022/08/16 09:31:14;;;;;;;1.92;1.70;;;;;;;23.58;40.64;100801.84;4963618;28;20534;-79
2022/08/16 09:33:40;;;;;;;2.22;1.65;;;;;;;24.12;38.11;100781.66;4954099;28;20026;-78
2022/08/16 09:36:07;;;;;;;4.05;2.20;;;;;;;25.13;35.75;100809.84;4984624;28;20040;-78
2022/08/16 09:38:37;;;;;;;3.05;2.00;;;;;;;25.02;36.60;100809.81;4966202;28;20292;-80
2022/08/16 09:41:06;;;;;;;3.83;1.73;;;;;;;25.59;35.06;100804.44;4961434;28;20038;-78
2022/08/16 09:43:33;;;;;;;3.58;2.22;;;;;;;24.55;37.03;100794.25;4982640;28;20022;-79
2022/08/16 09:45:59;;;;;;;3.92;2.25;;;;;;;26.06;34.84;100800.56;4979089;28;20030;-78
2022/08/16 09:48:25;;;;;;;3.85;1.95;;;;;;;25.56;35.64;100805.84;4994309;28;20145;-79
2022/08/16 09:50:50;;;;;;;4.53;1.80;;;;;;;24.40;37.10;100812.56;4984928;28;20545;-79
2022/08/16 09:53:19;;;;;;;4.80;1.65;;;;;;;23.47;39.52;100816.53;4981484;28;20030;-79
2022/08/16 09:55:48;;;;;;;5.45;2.20;;;;;;;22.87;41.39;100790.13;4987955;28;20038;-78
2022/08/16 09:58:14;;;;;;;6.45;2.25;;;;;;;25.64;36.61;100805.28;4959074;28;20543;-80
2022/08/16 10:00:40;;;;;;;4.82;1.92;;;;;;;27.32;32.61;100810.59;4970156;28;20046;-79
2022/08/16 10:03:05;;;;;;;4.40;1.95;;;;;;;27.80;31.87;100796.94;4975744;28;20023;-76
2022/08/16 10:05:34;;;;;;;5.65;2.40;;;;;;;29.41;29.53;100814.97;4982715;28;20058;-74
2022/08/16 10:08:00;;;;;;;4.40;1.70;;;;;;;28.68;31.28;100815.09;4960815;28;20095;-76
2022/08/16 10:10:26;;;;;;;6.25;1.98;;;;;;;27.33;30.47;100809.47;4946772;28;20330;-74
2022/08/16 10:15:36;;;;;;;4.35;1.88;;;;;;;25.58;33.48;100811.88;4964267;28;20033;-79
2022/08/16 10:18:06;;;;;;;2.22;1.50;;;;;;;25.94;33.78;100824.84;4973005;28;20038;-79
2022/08/16 10:20:38;;;;;;;4.63;2.00;;;;;;;23.98;36.97;100827.16;4960060;28;20069;-79
2022/08/16 10:23:06;;;;;;;3.95;2.22;;;;;;;22.53;39.09;100831.34;4982741;28;20500;-78
2022/08/16 10:25:32;;;;;;;5.00;1.95;;;;;;;22.51;39.42;100828.84;4970404;28;20064;-79
2022/08/16 10:27:59;;;;;;;3.38;1.70;;;;;;;24.50;34.57;100816.22;4986581;28;20030;-78
2022/08/16 10:30:24;;;;;;;3.30;1.80;;;;;;;25.60;32.85;100826.19;4977356;28;21327;-78
2022/08/16 10:32:50;;;;;;;3.72;1.75;;;;;;;25.23;34.12;100827.25;4966728;28;20038;-79
2022/08/16 10:35:16;;;;;;;5.82;1.55;;;;;;;22.85;37.93;100828.75;4953724;28;20139;-78
2022/08/16 10:37:41;;;;;;;4.32;1.88;;;;;;;24.76;36.04;100828.16;4965735;28;20086;-78
2022/08/16 10:40:09;;;;;;;6.47;1.50;;;;;;;25.43;34.57;100836.63;4982881;28;20045;-80
2022/08/16 10:42:34;;;;;;;5.70;1.88;;;;;;;26.19;34.07;100822.03;4955738;28;20045;-78
2022/08/16 10:45:01;;;;;;;3.72;1.60;;;;;;;25.09;34.35;100820.59;4986267;28;20030;-79
2022/08/16 10:47:28;;;;;;;2.55;1.63;;;;;;;24.04;36.53;100824.16;4987672;28;20158;-79
2022/08/16 10:49:54;;;;;;;3.22;1.48;;;;;;;24.04;35.50;100826.91;4980500;28;20046;-77
2022/08/16 10:52:21;;;;;;;4.68;2.17;;;;;;;23.96;35.62;100835.66;4976096;28;20034;-80
2022/08/16 10:54:47;;;;;;;4.75;2.05;;;;;;;23.65;35.92;100824.38;4963997;28;20473;-79
2022/08/16 10:57:13;;;;;;;3.55;1.90;;;;;;;23.47;37.51;100838.47;4958601;28;20035;-76
2022/08/16 10:59:40;;;;;;;2.45;1.55;;;;;;;23.86;37.09;100843.81;4965157;28;20029;-79
2022/08/16 11:02:09;;;;;;;4.45;2.10;;;;;;;25.49;34.22;100820.97;4963252;28;20038;-79
2022/08/16 11:04:35;;;;;;;5.60;2.20;;;;;;;24.28;35.07;100829.28;4984529;28;20481;-79
2022/08/16 11:07:01;;;;;;;2.83;1.60;;;;;;;23.37;36.72;100839.22;4980968;28;20075;-79
2022/08/16 11:09:26;;;;;;;2.20;1.58;;;;;;;23.06;36.60;100835.31;4956089;28;20070;-79
2022/08/16 11:11:52;;;;;;;9.13;3.22;;;;;;;24.11;36.25;100840.44;4974995;28;21020;-79
2022/08/16 11:14:18;;;;;;;1.70;1.10;;;;;;;24.82;33.99;100828.19;4975926;28;20042;-78
2022/08/16 11:16:44;;;;;;;2.33;1.50;;;;;;;25.40;32.09;100829.78;4983020;28;20030;-79
2022/08/16 11:19:10;;;;;;;5.00;1.60;;;;;;;26.47;31.22;100839.06;4980627;28;20046;-78
2022/08/16 11:21:36;;;;;;;5.85;2.05;;;;;;;27.04;29.33;100832.22;4965213;28;20393;-78
2022/08/16 11:24:03;;;;;;;4.63;1.90;;;;;;;28.08;28.25;100855.28;4962359;28;20129;-78